Time;durP1;ratioP1;P1;durP2;ratioP2;P2;SDS_P1;SDS_P2;PMS_P1;PMS_P2;Temp;Humidity;BMP_temperature;BMP_pressure;BME280_temperature;BME280_humidity;BME280_pressure;Samples;Min_cycle;Max_cycle;Signal;HPM_P1;HPM_P2
2021/03/08 00:02:18;;;;;;;35.17;15.87;;;1.10;83.10;;;;;;5040120;28;20295;-72
2021/03/08 00:04:44;;;;;;;30.93;14.77;;;1.10;82.80;;;;;;5035917;28;20180;-72
2021/03/08 00:07:10;;;;;;;30.87;15.70;;;1.10;82.80;;;;;;5052426;28;20927;-70
2021/03/08 00:09:38;;;;;;;26.80;14.53;;;1.10;82.50;;;;;;5037618;28;20180;-72
2021/03/08 00:12:06;;;;;;;28.75;14.70;;;1.10;82.40;;;;;;5039188;28;20240;-72
2021/03/08 00:14:31;;;;;;;27.88;13.20;;;1.10;82.50;;;;;;5052064;28;20315;-74
2021/03/08 00:16:57;;;;;;;22.73;12.13;;;1.10;82.20;;;;;;5041304;28;20223;-72
2021/03/08 00:19:23;;;;;;;25.40;12.90;;;1.10;81.40;;;;;;5037770;28;20620;-72
2021/03/08 00:21:49;;;;;;;19.70;11.20;;;1.10;80.20;;;;;;5049998;28;20243;-71
2021/03/08 00:24:15;;;;;;;22.05;10.90;;;1.00;79.30;;;;;;5048096;28;20188;-71
2021/03/08 00:26:41;;;;;;;24.87;12.33;;;1.10;78.60;;;;;;5021538;28;20182;-73
2021/03/08 00:29:07;;;;;;;24.05;12.90;;;1.00;77.40;;;;;;5031935;28;20608;-73
2021/03/08 00:31:33;;;;;;;23.75;11.55;;;1.00;78.60;;;;;;5036181;28;20185;-71
2021/03/08 00:33:59;;;;;;;25.67;11.67;;;1.00;78.90;;;;;;5038731;28;20531;-71
2021/03/08 00:36:24;;;;;;;28.73;13.47;;;1.00;79.30;;;;;;5040217;28;20181;-73
2021/03/08 00:38:50;;;;;;;31.77;15.03;;;1.10;80.50;;;;;;5033790;28;20274;-73
2021/03/08 00:41:16;;;;;;;30.93;13.73;;;1.10;80.60;;;;;;5030349;28;20267;-72
2021/03/08 00:43:42;;;;;;;35.70;14.20;;;1.10;80.80;;;;;;5031765;28;20229;-73
2021/03/08 00:46:07;;;;;;;24.40;13.10;;;1.00;81.10;;;;;;5044720;28;20176;-72
2021/03/08 00:48:33;;;;;;;24.23;14.47;;;1.00;81.40;;;;;;5051938;28;20271;-72
2021/03/08 00:50:59;;;;;;;35.97;14.17;;;1.00;81.80;;;;;;5039666;28;20193;-72
2021/03/08 00:53:24;;;;;;;31.00;14.53;;;0.90;81.90;;;;;;5038415;28;20215;-71
2021/03/08 00:55:50;;;;;;;26.17;13.73;;;0.90;82.20;;;;;;5040247;28;20185;-70
2021/03/08 00:58:16;;;;;;;25.57;13.40;;;0.80;82.40;;;;;;5052999;28;20279;-71
2021/03/08 01:00:42;;;;;;;27.87;13.70;;;0.80;82.70;;;;;;5041821;28;21006;-70
2021/03/08 01:03:08;;;;;;;32.97;14.50;;;0.90;82.40;;;;;;5035406;28;20217;-71
2021/03/08 01:05:34;;;;;;;25.13;13.00;;;0.90;82.50;;;;;;5031817;28;20930;-73
2021/03/08 01:07:59;;;;;;;21.60;11.40;;;0.90;81.20;;;;;;5038990;28;20418;-70
2021/03/08 01:10:28;;;;;;;22.27;11.63;;;0.90;80.90;;;;;;5053162;28;20184;-74
2021/03/08 01:12:54;;;;;;;21.13;11.32;;;0.80;79.30;;;;;;5053233;28;20208;-72
2021/03/08 01:15:20;;;;;;;20.70;12.27;;;0.80;78.70;;;;;;5051915;28;20594;-73
2021/03/08 01:17:46;;;;;;;21.77;10.95;;;0.80;78.70;;;;;;5052445;28;20668;-73
2021/03/08 01:20:15;;;;;;;23.15;11.93;;;0.70;78.40;;;;;;5039257;28;20603;-72
2021/03/08 01:22:41;;;;;;;24.40;12.00;;;0.70;78.10;;;;;;5051199;28;20330;-71
2021/03/08 01:25:12;;;;;;;25.83;12.47;;;0.70;78.40;;;;;;5041733;28;20177;-72
2021/03/08 01:27:39;;;;;;;23.60;12.68;;;0.70;79.00;;;;;;5031389;28;21015;-71
2021/03/08 01:30:10;;;;;;;26.25;12.60;;;0.70;79.30;;;;;;5046953;28;20185;-71
2021/03/08 01:32:36;;;;;;;27.17;13.27;;;0.70;79.30;;;;;;5021217;28;20266;-71
2021/03/08 01:35:02;;;;;;;25.77;13.20;;;0.70;79.60;;;;;;5030986;28;20664;-69
2021/03/08 01:37:27;;;;;;;24.90;13.10;;;0.60;79.90;;;;;;5032718;28;20223;-70
2021/03/08 01:39:53;;;;;;;21.30;11.47;;;0.70;79.90;;;;;;5031926;28;20464;-73
2021/03/08 01:42:19;;;;;;;23.37;12.67;;;0.60;79.90;;;;;;5046633;28;20247;-70
2021/03/08 01:44:45;;;;;;;24.57;13.03;;;0.60;79.50;;;;;;5033276;28;20684;-71
2021/03/08 01:47:11;;;;;;;22.10;12.77;;;0.60;79.00;;;;;;5043432;28;20523;-70
2021/03/08 01:49:37;;;;;;;21.10;12.03;;;0.70;79.30;;;;;;5053479;28;20217;-70
2021/03/08 01:52:04;;;;;;;25.27;12.50;;;0.60;79.20;;;;;;5034928;28;20205;-70
2021/03/08 01:54:29;;;;;;;24.83;11.35;;;0.60;79.30;;;;;;5048703;28;20188;-71
2021/03/08 01:56:56;;;;;;;23.00;12.50;;;0.60;79.20;;;;;;5037208;28;20219;-71
2021/03/08 01:59:22;;;;;;;23.60;12.70;;;0.60;78.90;;;;;;5049309;28;20192;-72
2021/03/08 02:01:48;;;;;;;22.95;11.68;;;0.60;79.20;;;;;;5042505;28;20239;-71
2021/03/08 02:04:14;;;;;;;21.63;10.82;;;0.50;79.00;;;;;;5039436;28;20192;-70
2021/03/08 02:06:40;;;;;;;22.83;11.90;;;0.50;78.70;;;;;;5043428;28;20184;-71
2021/03/08 02:09:06;;;;;;;23.57;11.50;;;0.50;78.60;;;;;;5051896;28;20526;-72
2021/03/08 02:11:35;;;;;;;22.77;11.68;;;0.50;78.90;;;;;;5042686;28;20195;-69
2021/03/08 02:14:16;;;;;;;24.30;11.70;;;0.50;78.40;;;;;;5039659;28;20185;-70
2021/03/08 02:16:45;;;;;;;21.23;12.35;;;0.40;78.90;;;;;;5032116;28;20943;-71
2021/03/08 02:19:48;;;;;;;22.45;11.77;;;0.40;79.00;;;;;;5035053;28;20195;-72
2021/03/08 02:22:51;;;;;;;23.85;12.13;;;0.40;79.90;;;;;;5036460;28;20234;-70
2021/03/08 02:25:17;;;;;;;23.20;11.85;;;0.40;79.70;;;;;;5034884;28;20181;-70
2021/03/08 02:27:58;;;;;;;26.77;12.03;;;0.50;79.70;;;;;;5016671;28;20558;-72
2021/03/08 02:30:32;;;;;;;27.67;13.35;;;0.50;79.60;;;;;;5043006;28;20188;-71
2021/03/08 02:33:01;;;;;;;31.90;14.25;;;0.50;79.30;;;;;;5040636;28;20215;-72
2021/03/08 02:35:29;;;;;;;27.80;14.73;;;0.60;78.40;;;;;;5034894;28;20196;-72
2021/03/08 02:38:02;;;;;;;28.50;13.13;;;0.70;77.60;;;;;;5039022;28;20648;-72
2021/03/08 02:41:05;;;;;;;23.00;12.75;;;0.70;77.70;;;;;;5031727;28;20934;-71
2021/03/08 02:43:42;;;;;;;27.30;12.00;;;0.70;78.10;;;;;;4968001;28;20234;-71
2021/03/08 02:46:13;;;;;;;27.92;13.77;;;0.60;78.10;;;;;;4969489;28;20198;-71
2021/03/08 02:48:42;;;;;;;24.30;12.82;;;0.70;78.30;;;;;;4977692;28;20284;-72
2021/03/08 02:51:09;;;;;;;26.58;13.88;;;0.60;78.00;;;;;;4964427;28;20639;-71
2021/03/08 02:53:40;;;;;;;26.05;13.48;;;0.50;78.00;;;;;;4960509;28;20768;-70
2021/03/08 02:56:12;;;;;;;26.88;13.68;;;0.50;77.80;;;;;;4972669;28;20198;-71
2021/03/08 02:58:42;;;;;;;22.63;12.35;;;0.60;77.40;;;;;;4952335;28;20183;-70
2021/03/08 03:01:09;;;;;;;29.85;14.82;;;0.60;77.10;;;;;;4967834;28;20202;-69
2021/03/08 03:03:38;;;;;;;27.20;14.85;;;0.70;77.60;;;;;;4967952;28;20215;-72
2021/03/08 03:06:05;;;;;;;26.40;14.35;;;0.70;77.60;;;;;;4969242;28;20195;-69
2021/03/08 03:08:32;;;;;;;28.63;13.88;;;0.70;77.60;;;;;;4969642;28;20654;-70
2021/03/08 03:11:00;;;;;;;27.45;13.88;;;0.70;77.80;;;;;;4970590;28;20194;-70
2021/03/08 03:13:26;;;;;;;23.20;12.45;;;0.70;78.10;;;;;;4971782;28;20358;-71
2021/03/08 03:15:52;;;;;;;25.67;13.02;;;0.60;78.40;;;;;;4969109;28;20195;-72
2021/03/08 03:18:19;;;;;;;28.73;12.95;;;0.50;78.70;;;;;;4978964;28;20216;-71
2021/03/08 03:20:46;;;;;;;24.77;13.75;;;0.40;79.30;;;;;;5034801;28;20338;-72
2021/03/08 03:23:13;;;;;;;31.20;13.30;;;0.30;79.50;;;;;;5040796;28;20774;-72
2021/03/08 03:25:41;;;;;;;29.27;15.55;;;0.30;79.70;;;;;;5030998;28;20495;-72
2021/03/08 03:28:07;;;;;;;26.55;13.68;;;0.20;80.00;;;;;;5020667;28;20223;-71
2021/03/08 03:30:34;;;;;;;25.98;13.60;;;0.10;80.30;;;;;;5046498;28;20326;-71
2021/03/08 03:33:02;;;;;;;32.58;14.48;;;0.10;80.90;;;;;;5038681;28;20395;-72
2021/03/08 03:35:28;;;;;;;26.10;15.75;;;0.00;81.40;;;;;;5042270;28;20299;-71
2021/03/08 03:37:56;;;;;;;31.60;14.88;;;0.00;81.80;;;;;;5040497;28;20180;-71
2021/03/08 03:40:24;;;;;;;25.83;13.77;;;-0.10;81.90;;;;;;5030751;28;20184;-72
2021/03/08 03:42:50;;;;;;;26.30;14.50;;;-0.10;82.40;;;;;;5047027;28;20212;-73
2021/03/08 03:45:21;;;;;;;30.73;15.50;;;-0.10;82.70;;;;;;5036811;28;20216;-70
2021/03/08 03:47:48;;;;;;;29.17;14.95;;;-0.10;82.70;;;;;;5047066;28;20176;-71
2021/03/08 03:50:17;;;;;;;28.30;14.43;;;-0.20;82.80;;;;;;5037675;28;20206;-71
2021/03/08 03:52:43;;;;;;;31.08;14.52;;;-0.20;83.10;;;;;;5039509;28;20213;-72
2021/03/08 03:55:14;;;;;;;30.47;15.43;;;-0.20;83.10;;;;;;5037667;28;20246;-71
2021/03/08 03:57:58;;;;;;;25.75;14.63;;;-0.20;83.10;;;;;;5040107;28;20426;-72
2021/03/08 04:00:25;;;;;;;34.05;14.85;;;-0.20;83.40;;;;;;5042877;28;20680;-72
2021/03/08 04:03:06;;;;;;;29.42;14.90;;;-0.30;83.40;;;;;;5049728;28;20232;-71
2021/03/08 04:05:34;;;;;;;28.70;15.60;;;-0.40;83.40;;;;;;5046869;28;20180;-72
2021/03/08 04:08:01;;;;;;;28.05;14.30;;;-0.40;83.70;;;;;;5047837;28;20220;-71
2021/03/08 04:10:27;;;;;;;27.67;14.68;;;-0.50;83.70;;;;;;5043479;28;20184;-71
2021/03/08 04:12:59;;;;;;;28.58;13.70;;;-0.40;83.60;;;;;;5052316;28;20268;-72
2021/03/08 04:15:28;;;;;;;28.10;14.93;;;-0.30;83.40;;;;;;5038273;28;20192;-70
2021/03/08 04:17:56;;;;;;;33.10;15.88;;;-0.40;83.30;;;;;;5040162;28;20188;-71
2021/03/08 04:20:23;;;;;;;29.73;15.23;;;-0.40;83.40;;;;;;5050987;28;20192;-72
2021/03/08 04:22:53;;;;;;;30.85;14.93;;;-0.30;83.60;;;;;;5038312;28;20273;-70
2021/03/08 04:25:19;;;;;;;34.28;16.15;;;-0.20;83.60;;;;;;5037094;28;20186;-72
2021/03/08 04:27:48;;;;;;;29.67;16.00;;;-0.20;83.30;;;;;;5019071;28;20212;-71
2021/03/08 04:30:15;;;;;;;24.27;13.75;;;-0.10;83.00;;;;;;5045361;28;20180;-70
2021/03/08 04:32:42;;;;;;;26.83;14.77;;;-0.20;82.80;;;;;;5039926;28;20236;-70
2021/03/08 04:35:09;;;;;;;26.98;13.88;;;-0.20;82.80;;;;;;5051662;28;20267;-70
2021/03/08 04:37:37;;;;;;;30.40;15.45;;;-0.20;82.80;;;;;;5052282;28;20263;-70
2021/03/08 04:40:08;;;;;;;29.45;15.13;;;-0.20;83.00;;;;;;5038314;28;20623;-71
2021/03/08 04:42:35;;;;;;;29.10;14.10;;;-0.20;83.30;;;;;;5030633;28;20221;-70
2021/03/08 04:45:02;;;;;;;33.58;15.82;;;-0.20;83.40;;;;;;5033977;28;20272;-70
2021/03/08 04:47:28;;;;;;;30.73;15.55;;;-0.20;83.70;;;;;;5052356;28;20177;-69
2021/03/08 04:49:54;;;;;;;26.52;14.43;;;-0.30;83.70;;;;;;5053124;28;20291;-70
2021/03/08 04:52:22;;;;;;;28.13;13.65;;;-0.30;83.70;;;;;;5050338;28;20215;-72
2021/03/08 04:54:49;;;;;;;30.15;16.05;;;-0.30;83.80;;;;;;5037942;28;20212;-71
2021/03/08 04:57:19;;;;;;;31.23;14.75;;;-0.30;84.30;;;;;;5041370;28;20189;-71
2021/03/08 04:59:51;;;;;;;31.20;16.30;;;-0.40;84.40;;;;;;5043633;28;20248;-72
2021/03/08 05:02:20;;;;;;;29.50;14.50;;;-0.40;84.40;;;;;;5043185;28;20204;-71
2021/03/08 05:04:49;;;;;;;31.67;15.75;;;-0.50;84.90;;;;;;5031751;28;20185;-71
2021/03/08 05:07:21;;;;;;;27.67;14.93;;;-0.50;84.90;;;;;;5043879;28;20208;-71
2021/03/08 05:09:50;;;;;;;33.55;16.33;;;-0.60;85.00;;;;;;5017530;28;20238;-72
2021/03/08 05:12:17;;;;;;;30.42;15.13;;;-0.60;85.30;;;;;;5032628;28;20209;-72
2021/03/08 05:14:44;;;;;;;31.05;16.50;;;-0.60;85.60;;;;;;5051928;28;20203;-72
2021/03/08 05:17:13;;;;;;;32.80;15.90;;;-0.70;85.70;;;;;;5050650;28;20180;-72
2021/03/08 05:19:42;;;;;;;35.08;15.50;;;-0.70;86.20;;;;;;5030473;28;20193;-72
2021/03/08 05:22:09;;;;;;;32.30;15.18;;;-0.80;86.30;;;;;;5044551;28;20216;-70
2021/03/08 05:24:36;;;;;;;32.13;15.80;;;-0.80;86.80;;;;;;5035330;28;20189;-70
2021/03/08 05:27:08;;;;;;;36.10;16.90;;;-0.80;87.00;;;;;;5020707;28;20196;-70
2021/03/08 05:29:38;;;;;;;34.40;16.02;;;-0.90;87.10;;;;;;5041714;28;20302;-73
2021/03/08 05:32:08;;;;;;;35.15;15.80;;;-0.90;87.30;;;;;;5037549;28;20212;-71
2021/03/08 05:34:36;;;;;;;31.58;16.23;;;-0.90;87.30;;;;;;5050716;28;20192;-72
2021/03/08 05:37:02;;;;;;;33.95;16.45;;;-0.90;87.30;;;;;;5034685;28;20247;-71
2021/03/08 05:39:29;;;;;;;33.40;17.02;;;-0.80;87.40;;;;;;5029187;28;20611;-70
2021/03/08 05:42:09;;;;;;;28.70;15.85;;;-0.80;87.30;;;;;;5029455;28;20212;-72
2021/03/08 05:44:40;;;;;;;38.80;16.58;;;-0.90;87.30;;;;;;5031887;28;20173;-71
2021/03/08 05:47:39;;;;;;;30.30;15.57;;;-0.90;87.60;;;;;;5031064;28;20533;-71
2021/03/08 05:50:23;;;;;;;34.70;15.60;;;-1.00;87.80;;;;;;5032044;28;20711;-71
2021/03/08 05:53:11;;;;;;;28.90;15.75;;;-1.00;88.10;;;;;;5030766;28;20296;-73
2021/03/08 05:56:01;;;;;;;33.60;16.48;;;-1.10;88.10;;;;;;5035898;28;20189;-73
2021/03/08 05:59:07;;;;;;;33.58;15.60;;;-1.10;88.60;;;;;;5020207;28;20185;-72
2021/03/08 06:01:47;;;;;;;30.70;17.38;;;-1.10;88.60;;;;;;5013976;28;20213;-72
2021/03/08 06:04:34;;;;;;;36.75;16.55;;;-1.10;88.70;;;;;;5047117;28;20214;-71
2021/03/08 06:07:19;;;;;;;33.75;17.00;;;-1.10;88.70;;;;;;5052910;28;20180;-70
2021/03/08 06:10:12;;;;;;;36.95;17.35;;;-1.10;88.90;;;;;;5018545;28;20185;-71
2021/03/08 06:12:40;;;;;;;39.35;17.10;;;-1.10;88.70;;;;;;5043773;28;20201;-70
2021/03/08 06:15:11;;;;;;;38.40;17.15;;;-1.00;88.90;;;;;;5042473;28;20184;-71
2021/03/08 06:17:38;;;;;;;33.50;16.65;;;-1.10;88.90;;;;;;5038584;28;20386;-71
2021/03/08 06:20:06;;;;;;;34.88;18.05;;;-1.10;89.00;;;;;;5038713;28;20181;-72
2021/03/08 06:22:32;;;;;;;35.97;18.10;;;-1.10;89.30;;;;;;5028436;28;20692;-72
2021/03/08 06:24:58;;;;;;;33.13;16.25;;;-1.10;89.60;;;;;;5029877;28;20263;-71
2021/03/08 06:27:25;;;;;;;33.45;17.73;;;-1.10;89.50;;;;;;5018934;28;20181;-72
2021/03/08 06:29:53;;;;;;;34.35;16.13;;;-1.10;89.50;;;;;;5029852;28;20191;-71
2021/03/08 06:32:19;;;;;;;32.33;16.48;;;-1.10;88.70;;;;;;5035300;28;20215;-71
2021/03/08 06:34:45;;;;;;;43.78;17.95;;;-1.10;88.10;;;;;;5038969;28;20751;-69
2021/03/08 06:37:13;;;;;;;32.03;14.93;;;-1.10;88.00;;;;;;5030306;28;20278;-71
2021/03/08 06:39:41;;;;;;;29.85;15.40;;;-1.10;87.70;;;;;;5033167;28;20194;-71
2021/03/08 06:42:08;;;;;;;34.85;17.30;;;-1.10;87.70;;;;;;5033991;28;20208;-70
2021/03/08 06:44:34;;;;;;;36.15;16.80;;;-1.10;87.80;;;;;;5037797;28;20264;-73
2021/03/08 06:47:01;;;;;;;45.70;17.38;;;-1.20;88.00;;;;;;5051029;28;20239;-72
2021/03/08 06:49:27;;;;;;;40.38;17.80;;;-1.10;88.60;;;;;;5038124;28;20227;-72
2021/03/08 06:52:09;;;;;;;32.30;17.77;;;-1.00;88.60;;;;;;5033041;28;20205;-71
2021/03/08 06:54:37;;;;;;;42.10;17.85;;;-1.00;88.60;;;;;;5046846;28;20502;-71
2021/03/08 06:57:25;;;;;;;42.63;18.55;;;-0.90;88.90;;;;;;5041176;28;20180;-72
2021/03/08 06:59:56;;;;;;;38.72;17.55;;;-0.80;88.60;;;;;;5034673;28;20208;-71
2021/03/08 07:02:33;;;;;;;35.88;17.45;;;-0.70;88.30;;;;;;5034400;28;20212;-71
2021/03/08 07:04:59;;;;;;;33.28;17.08;;;-0.60;88.30;;;;;;5031239;28;20182;-72
2021/03/08 07:07:25;;;;;;;37.85;18.27;;;-0.60;88.30;;;;;;5052434;28;20181;-72
2021/03/08 07:09:52;;;;;;;37.33;17.60;;;-0.50;88.40;;;;;;5042822;28;20181;-70
2021/03/08 07:12:19;;;;;;;33.45;17.83;;;-0.40;88.60;;;;;;5044887;28;20447;-71
2021/03/08 07:14:46;;;;;;;39.05;18.77;;;-0.30;88.30;;;;;;5029624;28;20259;-71
2021/03/08 07:17:30;;;;;;;38.90;18.48;;;-0.30;87.70;;;;;;5030502;28;20808;-71
2021/03/08 07:19:57;;;;;;;41.78;19.23;;;-0.20;87.40;;;;;;5040727;28;20267;-72
2021/03/08 07:22:47;;;;;;;36.50;18.73;;;-0.10;86.80;;;;;;5031889;28;20702;-71
2021/03/08 07:25:30;;;;;;;41.05;18.45;;;-0.10;86.00;;;;;;5028851;28;20256;-72
2021/03/08 07:28:04;;;;;;;34.97;17.70;;;0.00;85.70;;;;;;5018506;28;20189;-72
2021/03/08 07:30:30;;;;;;;30.55;16.60;;;0.10;85.60;;;;;;5029202;28;20228;-72
2021/03/08 07:32:55;;;;;;;34.07;17.97;;;0.10;85.20;;;;;;5038740;28;20228;-73
2021/03/08 07:35:41;;;;;;;39.20;17.80;;;0.20;85.30;;;;;;5036025;28;20257;-72
2021/03/08 07:38:09;;;;;;;42.35;18.15;;;0.40;85.30;;;;;;5036801;28;20196;-70
2021/03/08 07:40:38;;;;;;;35.58;18.55;;;0.50;84.40;;;;;;5039471;28;20263;-71
2021/03/08 07:43:03;;;;;;;37.45;18.13;;;0.60;84.10;;;;;;5035811;28;20278;-73
2021/03/08 07:45:44;;;;;;;42.53;20.50;;;0.70;83.80;;;;;;5043885;28;20177;-73
2021/03/08 07:48:18;;;;;;;45.22;19.30;;;0.70;83.80;;;;;;5042861;28;20947;-73
2021/03/08 07:50:45;;;;;;;43.05;18.42;;;0.90;84.00;;;;;;5020187;28;20200;-72
2021/03/08 07:53:31;;;;;;;40.75;19.23;;;1.00;82.80;;;;;;5039334;28;20209;-72
2021/03/08 07:56:05;;;;;;;35.22;16.95;;;1.00;82.40;;;;;;5043017;28;20181;-72
2021/03/08 07:58:33;;;;;;;35.10;19.42;;;1.00;82.10;;;;;;5016484;28;20197;-73
2021/03/08 08:01:01;;;;;;;45.80;20.10;;;1.00;81.50;;;;;;5042879;28;20678;-72
2021/03/08 08:03:27;;;;;;;38.28;19.27;;;0.90;81.70;;;;;;5038017;28;20285;-72
2021/03/08 08:06:07;;;;;;;35.97;18.43;;;0.90;81.90;;;;;;5034191;28;20189;-72
2021/03/08 08:08:36;;;;;;;39.50;18.20;;;1.00;81.70;;;;;;5030798;28;20419;-72
2021/03/08 08:11:04;;;;;;;37.10;18.27;;;1.00;80.90;;;;;;5030651;28;20213;-72
2021/03/08 08:13:50;;;;;;;38.83;18.73;;;1.10;81.10;;;;;;5030892;28;20351;-71
2021/03/08 08:16:18;;;;;;;37.13;19.17;;;1.10;81.50;;;;;;5005395;28;20209;-71
2021/03/08 08:18:46;;;;;;;38.35;17.63;;;1.10;81.40;;;;;;5023530;28;20189;-71
2021/03/08 08:21:17;;;;;;;34.10;18.48;;;1.10;81.10;;;;;;5040386;28;20563;-70
2021/03/08 08:23:45;;;;;;;33.25;16.98;;;1.20;80.80;;;;;;5032436;28;20351;-71
2021/03/08 08:26:17;;;;;;;39.95;19.65;;;1.20;80.00;;;;;;5018519;28;20182;-72
2021/03/08 08:28:45;;;;;;;39.70;19.33;;;1.20;80.00;;;;;;5044070;28;20259;-72
2021/03/08 08:31:11;;;;;;;35.53;19.67;;;1.30;80.30;;;;;;5044719;28;20176;-70
2021/03/08 08:33:37;;;;;;;38.13;18.13;;;1.30;80.20;;;;;;5042428;28;20217;-71
2021/03/08 08:36:18;;;;;;;41.20;19.60;;;1.30;80.30;;;;;;5056090;28;20227;-73
2021/03/08 08:38:53;;;;;;;34.55;18.83;;;1.30;80.20;;;;;;5036330;28;20570;-72
2021/03/08 08:41:28;;;;;;;34.22;18.42;;;1.40;80.30;;;;;;5037676;28;20179;-71
2021/03/08 08:44:09;;;;;;;33.78;18.10;;;1.40;79.50;;;;;;5018208;28;20621;-71
2021/03/08 08:46:37;;;;;;;38.53;19.00;;;1.40;79.60;;;;;;5047167;28;20338;-71
2021/03/08 08:49:14;;;;;;;32.80;16.75;;;1.60;79.30;;;;;;5037355;28;20200;-70
2021/03/08 08:51:55;;;;;;;36.75;17.45;;;1.70;78.60;;;;;;5035388;28;20196;-71
2021/03/08 08:54:26;;;;;;;34.30;18.08;;;1.80;78.40;;;;;;5044712;28;20176;-70
2021/03/08 08:56:58;;;;;;;31.33;18.20;;;1.80;77.80;;;;;;5033021;28;20686;-72
2021/03/08 08:59:26;;;;;;;39.80;18.90;;;1.90;77.70;;;;;;5020092;28;20579;-72
2021/03/08 09:02:28;;;;;;;39.33;20.05;;;1.90;76.80;;;;;;5044835;28;20271;-72
2021/03/08 09:04:54;;;;;;;41.00;19.48;;;2.00;76.50;;;;;;5050080;28;20195;-72
2021/03/08 09:07:24;;;;;;;36.50;17.90;;;2.10;76.50;;;;;;5042519;28;20556;-72
2021/03/08 09:09:51;;;;;;;38.60;18.63;;;2.00;76.10;;;;;;5039167;28;20212;-73
2021/03/08 09:12:29;;;;;;;35.42;17.83;;;2.00;76.70;;;;;;5037299;28;20213;-71
2021/03/08 09:15:00;;;;;;;41.35;19.27;;;2.10;76.10;;;;;;5051855;28;20191;-71
2021/03/08 09:17:41;;;;;;;36.03;17.58;;;2.20;75.80;;;;;;5050068;28;20229;-71
2021/03/08 09:20:07;;;;;;;30.90;16.80;;;2.20;75.20;;;;;;5032352;28;20187;-72
2021/03/08 09:22:53;;;;;;;33.87;16.40;;;2.40;74.60;;;;;;5045305;28;20217;-72
2021/03/08 09:25:23;;;;;;;34.58;17.83;;;2.40;73.90;;;;;;5032736;28;20169;-72
2021/03/08 09:28:01;;;;;;;39.92;18.77;;;2.30;73.90;;;;;;5032610;28;20180;-70
2021/03/08 09:30:31;;;;;;;32.45;16.00;;;2.30;74.20;;;;;;5032946;28;20181;-72
2021/03/08 09:33:05;;;;;;;35.88;16.83;;;2.40;74.20;;;;;;5051343;28;20204;-72
2021/03/08 09:35:38;;;;;;;31.27;15.38;;;2.50;73.20;;;;;;5051051;28;20207;-71
2021/03/08 09:38:11;;;;;;;31.67;16.27;;;2.60;73.50;;;;;;5039564;28;20181;-70
2021/03/08 09:40:47;;;;;;;32.05;15.90;;;2.70;72.10;;;;;;5025587;28;20826;-71
2021/03/08 09:43:24;;;;;;;32.97;16.23;;;2.70;72.10;;;;;;5045119;28;20215;-71
2021/03/08 09:46:16;;;;;;;34.65;15.25;;;2.90;72.00;;;;;;5031722;28;20245;-70
2021/03/08 09:48:50;;;;;;;30.13;16.42;;;3.10;70.50;;;;;;5013658;28;20215;-71
2021/03/08 09:51:17;;;;;;;31.85;17.30;;;3.20;69.80;;;;;;5032608;28;20583;-72
2021/03/08 09:53:51;;;;;;;26.25;14.80;;;3.20;69.20;;;;;;5051639;28;20708;-69
2021/03/08 09:56:19;;;;;;;29.98;17.13;;;3.10;70.40;;;;;;5034443;28;20185;-72
2021/03/08 09:58:45;;;;;;;39.22;18.17;;;3.10;70.20;;;;;;5031893;28;20272;-71
2021/03/08 10:01:15;;;;;;;36.20;17.48;;;3.10;70.80;;;;;;5030943;28;20294;-72
2021/03/08 10:03:41;;;;;;;33.08;17.95;;;3.30;70.40;;;;;;5044097;28;20220;-72
2021/03/08 10:06:07;;;;;;;31.27;15.33;;;3.50;69.40;;;;;;5048430;28;20181;-71
2021/03/08 10:08:33;;;;;;;35.53;16.97;;;3.50;68.50;;;;;;5041719;28;20415;-71
2021/03/08 10:10:59;;;;;;;33.00;17.07;;;3.60;68.30;;;;;;5034839;28;20474;-72
2021/03/08 10:13:26;;;;;;;37.80;16.00;;;3.80;67.70;;;;;;5030336;28;20205;-71
2021/03/08 10:15:55;;;;;;;31.70;17.02;;;3.80;66.10;;;;;;5046265;28;20223;-72
2021/03/08 10:18:31;;;;;;;26.00;14.30;;;3.70;66.10;;;;;;5041166;28;20205;-71
2021/03/08 10:20:58;;;;;;;31.67;14.83;;;3.80;66.30;;;;;;5029915;28;20280;-70
2021/03/08 10:23:32;;;;;;;27.27;15.27;;;3.70;66.30;;;;;;5030409;28;20977;-72
2021/03/08 10:26:06;;;;;;;32.85;17.17;;;3.90;66.60;;;;;;5037143;28;20423;-72
2021/03/08 10:28:43;;;;;;;27.77;14.53;;;3.90;65.30;;;;;;5014296;28;20174;-71
2021/03/08 10:31:18;;;;;;;33.23;14.10;;;4.00;64.50;;;;;;5034835;28;20423;-71
2021/03/08 10:34:08;;;;;;;25.17;13.60;;;4.10;64.20;;;;;;5052331;28;20526;-71
2021/03/08 10:36:42;;;;;;;23.75;13.00;;;4.20;63.70;;;;;;5040394;28;21022;-72
2021/03/08 10:39:10;;;;;;;28.67;14.30;;;4.20;63.10;;;;;;5020292;28;20589;-71
2021/03/08 10:41:37;;;;;;;24.80;13.40;;;4.40;62.90;;;;;;5030335;28;20187;-71
2021/03/08 10:44:05;;;;;;;28.53;14.47;;;4.50;61.70;;;;;;5048801;28;20533;-71
2021/03/08 10:46:36;;;;;;;27.70;13.47;;;4.80;61.00;;;;;;5051780;28;20447;-72
2021/03/08 10:49:07;;;;;;;29.67;14.97;;;5.00;60.00;;;;;;5031043;28;20497;-71
2021/03/08 10:51:35;;;;;;;21.67;13.40;;;5.30;59.20;;;;;;5048124;28;20429;-70
2021/03/08 10:54:06;;;;;;;23.43;13.30;;;5.50;58.70;;;;;;5039814;28;20424;-70
2021/03/08 10:56:34;;;;;;;20.70;12.60;;;5.90;58.00;;;;;;5035271;28;20431;-71
2021/03/08 10:59:00;;;;;;;23.17;12.10;;;6.00;55.80;;;;;;5038566;28;20424;-71
2021/03/08 11:01:27;;;;;;;19.77;11.90;;;6.50;54.90;;;;;;5035635;28;20765;-70
2021/03/08 11:03:53;;;;;;;22.13;12.10;;;6.70;53.40;;;;;;5050238;28;20475;-70
2021/03/08 11:06:20;;;;;;;22.20;11.87;;;6.90;52.50;;;;;;5032121;28;20419;-71
2021/03/08 11:09:01;;;;;;;19.87;11.83;;;7.20;51.30;;;;;;5030109;28;20419;-71
2021/03/08 11:11:29;;;;;;;17.53;10.17;;;7.20;51.20;;;;;;5016403;28;20444;-71
2021/03/08 11:14:06;;;;;;;17.43;11.00;;;7.20;49.00;;;;;;5043919;28;20426;-71
2021/03/08 11:16:33;;;;;;;22.73;11.70;;;7.20;49.40;;;;;;5030334;28;20521;-71
2021/03/08 11:19:25;;;;;;;20.13;11.93;;;7.30;48.50;;;;;;5033919;28;21029;-70
2021/03/08 11:22:08;;;;;;;22.37;11.93;;;7.40;49.30;;;;;;5051650;28;20446;-70
2021/03/08 11:24:48;;;;;;;17.97;11.13;;;7.20;49.50;;;;;;5017218;28;20489;-72
2021/03/08 11:27:24;;;;;;;19.10;11.50;;;7.20;49.90;;;;;;5016906;28;20423;-71
2021/03/08 11:30:22;;;;;;;19.73;12.90;;;7.50;50.10;;;;;;5039698;28;20422;-71
2021/03/08 11:32:56;;;;;;;21.63;12.93;;;7.70;49.10;;;;;;5048787;28;20450;-70
2021/03/08 11:35:27;;;;;;;21.90;11.80;;;7.70;48.70;;;;;;5047424;28;20473;-70
2021/03/08 11:37:58;;;;;;;19.70;11.90;;;7.60;48.10;;;;;;5033972;28;20882;-72
2021/03/08 11:40:26;;;;;;;22.17;12.57;;;7.50;49.00;;;;;;5039263;28;20451;-71
2021/03/08 11:42:53;;;;;;;25.20;13.80;;;7.80;48.70;;;;;;5029892;28;20545;-71
2021/03/08 11:45:20;;;;;;;19.97;12.40;;;7.50;48.50;;;;;;5042573;28;20408;-72
2021/03/08 11:47:50;;;;;;;16.73;11.47;;;7.10;49.80;;;;;;5043156;28;20426;-72
2021/03/08 11:50:17;;;;;;;22.37;12.70;;;7.10;50.70;;;;;;5041585;28;20486;-72
2021/03/08 11:52:43;;;;;;;23.40;12.97;;;7.10;49.70;;;;;;5029261;28;20510;-71
2021/03/08 11:55:09;;;;;;;22.43;12.43;;;6.80;50.20;;;;;;5042229;28;20450;-70
2021/03/08 11:57:35;;;;;;;20.50;11.80;;;7.20;50.10;;;;;;5029654;28;20185;-73
2021/03/08 12:00:01;;;;;;;21.83;12.80;;;7.80;49.10;;;;;;5045634;28;20430;-72
2021/03/08 12:02:29;;;;;;;19.47;12.13;;;8.20;47.70;;;;;;5048737;28;20212;-70
2021/03/08 12:04:55;;;;;;;21.23;12.70;;;8.60;45.30;;;;;;5027627;28;20419;-71
2021/03/08 12:07:21;;;;;;;20.17;11.63;;;8.70;44.60;;;;;;5054918;28;20421;-71
2021/03/08 12:09:46;;;;;;;20.00;11.17;;;9.10;43.50;;;;;;5020640;28;20185;-71
2021/03/08 12:12:12;;;;;;;20.47;12.13;;;9.30;41.80;;;;;;5046958;28;20687;-71
2021/03/08 12:14:38;;;;;;;20.10;11.30;;;9.50;41.60;;;;;;5053037;28;20267;-72
2021/03/08 12:17:04;;;;;;;28.00;11.90;;;9.90;41.10;;;;;;5039148;28;20193;-71
2021/03/08 12:19:29;;;;;;;20.47;12.00;;;10.10;40.00;;;;;;5020452;28;20205;-71
2021/03/08 12:21:55;;;;;;;26.00;13.07;;;10.10;40.30;;;;;;5046712;28;20204;-71
2021/03/08 12:24:21;;;;;;;19.87;12.70;;;10.30;39.90;;;;;;5036234;28;20192;-73
2021/03/08 12:26:47;;;;;;;21.27;11.20;;;10.20;38.40;;;;;;5020922;28;20456;-71
2021/03/08 12:29:13;;;;;;;18.90;11.80;;;9.70;37.50;;;;;;5038205;28;20212;-70
2021/03/08 12:31:39;;;;;;;20.87;11.90;;;9.10;40.00;;;;;;5038491;28;20188;-70
2021/03/08 12:34:05;;;;;;;22.73;12.03;;;8.70;41.00;;;;;;5040907;28;20187;-72
2021/03/08 12:36:30;;;;;;;22.03;12.17;;;8.90;40.60;;;;;;5041711;28;20420;-71
2021/03/08 12:38:56;;;;;;;20.73;11.97;;;9.30;39.90;;;;;;5034492;28;20212;-71
2021/03/08 12:41:22;;;;;;;22.90;12.23;;;9.30;40.40;;;;;;5023162;28;20201;-71
2021/03/08 12:43:49;;;;;;;21.40;12.30;;;9.20;41.60;;;;;;5050202;28;20714;-72
2021/03/08 12:46:15;;;;;;;20.37;11.83;;;8.90;39.90;;;;;;5044004;28;20181;-71
2021/03/08 12:48:41;;;;;;;24.83;12.10;;;8.90;40.20;;;;;;5046381;28;20447;-71
2021/03/08 12:51:07;;;;;;;19.87;12.03;;;9.10;40.20;;;;;;5045819;28;21065;-71